Time;durP1;ratioP1;P1;durP2;ratioP2;P2;SDS_P1;SDS_P2;PMS_P1;PMS_P2;Temp;Humidity;BMP_temperature;BMP_pressure;BME280_temperature;BME280_humidity;BME280_pressure;Samples;Min_cycle;Max_cycle;Signal;HPM_P1;HPM_P2
2023/07/19 00:01:05;;;;;;;0.30;0.30;;;21.20;81.10;;;;;;4982011;28;20132;-77
2023/07/19 00:03:31;;;;;;;2.42;0.80;;;21.20;81.30;;;;;;4982565;28;20445;-77
2023/07/19 00:06:00;;;;;;;0.50;0.35;;;21.20;81.50;;;;;;4982842;28;20039;-77
2023/07/19 00:08:26;;;;;;;0.95;0.47;;;21.20;81.60;;;;;;5015055;28;20026;-76
2023/07/19 00:10:52;;;;;;;1.20;0.60;;;21.20;81.20;;;;;;4983282;28;20524;-75
2023/07/19 00:13:18;;;;;;;0.63;0.40;;;21.20;81.30;;;;;;5013842;28;20042;-75
2023/07/19 00:15:44;;;;;;;1.33;0.40;;;21.20;81.40;;;;;;4982934;28;20041;-75
2023/07/19 00:18:09;;;;;;;2.38;0.40;;;21.20;81.60;;;;;;4979518;28;20142;-75
2023/07/19 00:20:35;;;;;;;0.35;0.30;;;21.20;81.60;;;;;;4983822;28;20169;-76
2023/07/19 00:23:01;;;;;;;1.67;0.40;;;21.20;81.40;;;;;;4982569;28;20135;-76
2023/07/19 00:25:27;;;;;;;2.00;0.85;;;21.10;81.20;;;;;;5013030;28;20118;-75
2023/07/19 00:27:53;;;;;;;0.82;0.60;;;21.20;81.50;;;;;;4986240;28;20070;-77
2023/07/19 00:30:20;;;;;;;1.77;0.68;;;21.20;81.70;;;;;;5001060;28;20390;-76
2023/07/19 00:32:46;;;;;;;1.05;0.50;;;21.20;81.70;;;;;;4986309;28;21406;-76
2023/07/19 00:35:12;;;;;;;0.60;0.60;;;21.20;81.60;;;;;;4980587;28;20030;-76
2023/07/19 00:37:39;;;;;;;1.20;0.47;;;21.10;81.60;;;;;;4981894;28;20057;-76
2023/07/19 00:40:05;;;;;;;1.75;0.63;;;21.10;81.90;;;;;;5002238;28;20525;-75
2023/07/19 00:42:32;;;;;;;0.47;0.47;;;21.00;81.90;;;;;;4980817;28;20610;-76
2023/07/19 00:44:57;;;;;;;0.57;0.28;;;21.10;82.10;;;;;;5012517;28;20125;-76
2023/07/19 00:47:24;;;;;;;0.40;0.30;;;21.10;82.30;;;;;;5020614;28;20137;-76
2023/07/19 00:49:50;;;;;;;0.68;0.40;;;21.00;82.00;;;;;;5012052;28;20502;-75
2023/07/19 00:52:17;;;;;;;1.02;0.40;;;21.10;82.70;;;;;;5016611;28;20477;-76
2023/07/19 00:54:43;;;;;;;0.80;0.40;;;21.10;82.60;;;;;;5005858;28;20061;-77
2023/07/19 00:57:09;;;;;;;0.50;0.50;;;21.00;82.30;;;;;;4979934;28;20050;-76
2023/07/19 00:59:35;;;;;;;1.17;0.43;;;21.00;82.60;;;;;;4983073;28;20174;-76
2023/07/19 01:02:01;;;;;;;1.45;0.32;;;21.00;82.70;;;;;;4981438;28;20034;-76
2023/07/19 01:04:29;;;;;;;0.93;0.57;;;21.00;82.60;;;;;;4980023;28;20113;-76
2023/07/19 01:06:56;;;;;;;1.98;0.40;;;21.00;82.80;;;;;;4981406;28;20050;-76
2023/07/19 01:09:24;;;;;;;1.30;0.40;;;21.00;83.00;;;;;;5012227;28;20034;-75
2023/07/19 01:11:50;;;;;;;0.43;0.38;;;21.10;82.90;;;;;;4981822;28;20042;-74
2023/07/19 01:14:18;;;;;;;0.77;0.40;;;21.10;82.80;;;;;;5001521;28;20074;-75
2023/07/19 01:16:44;;;;;;;0.80;0.40;;;21.00;83.20;;;;;;4984732;28;20065;-75
2023/07/19 01:19:10;;;;;;;0.65;0.35;;;21.00;83.30;;;;;;4980785;28;20488;-75
2023/07/19 01:21:39;;;;;;;1.00;0.50;;;21.00;83.30;;;;;;5011807;28;20054;-75
2023/07/19 01:24:07;;;;;;;0.90;0.50;;;21.00;83.30;;;;;;4981759;28;20708;-75
2023/07/19 01:26:33;;;;;;;1.02;0.40;;;21.10;83.40;;;;;;5014617;28;20112;-76
2023/07/19 01:28:59;;;;;;;0.45;0.45;;;21.00;83.20;;;;;;5013504;28;20034;-76
2023/07/19 01:31:25;;;;;;;1.65;0.55;;;21.00;83.50;;;;;;5012742;28;20460;-76
2023/07/19 01:33:51;;;;;;;1.70;0.85;;;21.00;83.30;;;;;;5011741;28;20034;-76
2023/07/19 01:36:18;;;;;;;0.35;0.35;;;21.00;83.60;;;;;;5011027;28;20034;-76
2023/07/19 01:38:44;;;;;;;0.70;0.50;;;21.00;83.60;;;;;;4980039;28;20068;-77
2023/07/19 01:41:10;;;;;;;0.60;0.55;;;21.00;84.00;;;;;;4987127;28;20124;-75
2023/07/19 01:43:36;;;;;;;0.47;0.40;;;21.00;84.00;;;;;;4985325;28;20133;-76
2023/07/19 01:46:02;;;;;;;0.88;0.50;;;21.00;84.30;;;;;;4980679;28;20552;-75
2023/07/19 01:48:29;;;;;;;0.90;0.50;;;21.00;84.50;;;;;;4981151;28;20039;-75
2023/07/19 01:50:54;;;;;;;0.90;0.68;;;21.00;84.30;;;;;;4983490;28;20038;-75
2023/07/19 01:53:20;;;;;;;2.35;0.95;;;21.00;84.70;;;;;;5011886;28;20027;-75
2023/07/19 01:55:46;;;;;;;0.70;0.52;;;21.00;84.50;;;;;;4968530;28;20046;-75
2023/07/19 01:58:12;;;;;;;1.85;0.70;;;21.00;84.70;;;;;;4990204;28;20166;-76
2023/07/19 02:00:38;;;;;;;0.70;0.60;;;21.00;84.80;;;;;;4979876;28;20620;-76
2023/07/19 02:03:04;;;;;;;1.67;0.50;;;21.00;84.90;;;;;;5011357;28;20525;-75
2023/07/19 02:05:30;;;;;;;0.88;0.40;;;21.00;84.80;;;;;;5012308;28;20414;-74
2023/07/19 02:07:56;;;;;;;0.85;0.40;;;21.00;85.00;;;;;;5010796;28;20069;-75
2023/07/19 02:10:23;;;;;;;2.15;0.70;;;21.00;85.20;;;;;;4979663;28;20410;-74
2023/07/19 02:12:49;;;;;;;0.52;0.40;;;21.10;85.20;;;;;;4978350;28;20040;-74
2023/07/19 02:15:16;;;;;;;2.28;0.50;;;21.10;85.10;;;;;;4979019;28;20179;-74
2023/07/19 02:17:41;;;;;;;1.58;0.50;;;21.10;85.10;;;;;;4979236;28;20092;-75
2023/07/19 02:20:08;;;;;;;0.68;0.40;;;21.10;84.60;;;;;;5017083;28;20532;-74
2023/07/19 02:22:34;;;;;;;1.75;0.40;;;21.10;85.10;;;;;;4983585;28;20505;-76
2023/07/19 02:25:02;;;;;;;0.65;0.40;;;21.10;85.20;;;;;;5001127;28;20042;-73
2023/07/19 02:27:31;;;;;;;0.63;0.45;;;21.20;85.30;;;;;;4980520;28;20209;-75
2023/07/19 02:30:01;;;;;;;0.52;0.30;;;21.20;85.30;;;;;;4980272;28;20046;-75
2023/07/19 02:32:28;;;;;;;0.45;0.32;;;21.20;85.30;;;;;;4980598;28;20125;-76
2023/07/19 02:34:54;;;;;;;1.60;0.40;;;21.20;85.20;;;;;;4978940;28;20137;-75
2023/07/19 02:37:20;;;;;;;0.30;0.30;;;21.30;85.30;;;;;;5010161;28;20137;-74
2023/07/19 02:39:46;;;;;;;0.98;0.20;;;21.30;85.10;;;;;;4976360;28;20069;-75
2023/07/19 02:42:11;;;;;;;1.50;0.40;;;21.30;84.80;;;;;;4981536;28;20414;-73
2023/07/19 02:44:37;;;;;;;1.25;0.30;;;21.30;84.80;;;;;;4985071;28;20664;-75
2023/07/19 02:47:04;;;;;;;2.05;0.40;;;21.30;84.70;;;;;;4999106;28;20041;-75
2023/07/19 02:49:31;;;;;;;0.20;0.20;;;21.40;84.90;;;;;;5010719;28;20101;-75
2023/07/19 02:51:57;;;;;;;0.30;0.30;;;21.40;84.70;;;;;;5014685;28;20417;-75
2023/07/19 02:54:23;;;;;;;2.50;0.40;;;21.50;84.80;;;;;;5015547;28;20045;-74
2023/07/19 02:56:49;;;;;;;1.42;0.20;;;21.40;84.50;;;;;;4985959;28;20125;-75
2023/07/19 02:59:15;;;;;;;0.55;0.22;;;21.40;84.00;;;;;;4982111;28;20053;-75
2023/07/19 03:01:41;;;;;;;0.43;0.17;;;21.40;83.90;;;;;;4984531;28;20130;-74
2023/07/19 03:04:07;;;;;;;0.50;0.20;;;21.40;84.60;;;;;;5010876;28;20505;-75
2023/07/19 03:06:33;;;;;;;0.13;0.13;;;21.30;84.10;;;;;;5011483;28;20042;-75
2023/07/19 03:08:59;;;;;;;0.43;0.28;;;21.30;84.10;;;;;;5013707;28;20044;-75
2023/07/19 03:11:25;;;;;;;0.30;0.30;;;21.30;84.10;;;;;;5011037;28;20035;-74
2023/07/19 03:13:51;;;;;;;0.20;0.20;;;21.30;84.10;;;;;;4983231;28;20054;-74
2023/07/19 03:16:17;;;;;;;0.45;0.35;;;21.30;84.20;;;;;;4998898;28;20122;-75
2023/07/19 03:18:43;;;;;;;0.95;0.30;;;21.30;84.20;;;;;;5014574;28;20046;-74
2023/07/19 03:21:09;;;;;;;0.20;0.20;;;21.30;84.20;;;;;;5016263;28;20038;-75
2023/07/19 03:23:35;;;;;;;0.65;0.20;;;21.30;84.20;;;;;;4985398;28;20595;-74
2023/07/19 03:26:01;;;;;;;0.68;0.30;;;21.30;84.30;;;;;;4984948;28;20062;-76
2023/07/19 03:28:29;;;;;;;0.22;0.10;;;21.30;84.60;;;;;;4983350;28;20053;-76
2023/07/19 03:30:57;;;;;;;0.95;0.20;;;21.20;84.40;;;;;;5016666;28;20037;-76
2023/07/19 03:33:25;;;;;;;1.10;0.20;;;21.20;84.30;;;;;;4997398;28;20034;-89
2023/07/19 03:35:52;;;;;;;0.88;0.20;;;21.30;84.40;;;;;;4984502;28;20030;-81
2023/07/19 03:38:19;;;;;;;0.20;0.10;;;21.20;84.60;;;;;;5005389;28;20034;-81
2023/07/19 03:40:45;;;;;;;0.43;0.20;;;21.30;84.60;;;;;;5005700;28;20509;-82
2023/07/19 03:43:11;;;;;;;1.10;0.35;;;21.20;84.20;;;;;;5002367;28;20038;-82
2023/07/19 03:45:39;;;;;;;0.98;0.28;;;21.20;84.20;;;;;;5002254;28;20402;-83
2023/07/19 03:48:05;;;;;;;1.63;0.10;;;21.20;84.50;;;;;;5020614;28;20057;-81
2023/07/19 03:50:32;;;;;;;2.67;0.43;;;21.20;84.60;;;;;;5005024;28;20122;-79
2023/07/19 03:52:58;;;;;;;1.67;0.40;;;21.20;84.80;;;;;;5021118;28;20042;-79
2023/07/19 03:55:24;;;;;;;1.17;0.28;;;21.20;84.30;;;;;;4988801;28;20057;-79
2023/07/19 03:57:51;;;;;;;0.90;0.30;;;21.20;83.90;;;;;;5021444;28;20460;-78
2023/07/19 04:00:18;;;;;;;0.60;0.50;;;21.20;83.80;;;;;;5036742;28;20412;-82
2023/07/19 04:02:44;;;;;;;0.75;0.40;;;21.20;84.00;;;;;;5002784;28;20022;-74
2023/07/19 04:05:12;;;;;;;1.00;0.40;;;21.10;83.60;;;;;;5000632;28;20060;-74
2023/07/19 04:07:38;;;;;;;3.10;0.88;;;21.10;84.00;;;;;;5035018;28;20551;-76
2023/07/19 04:10:04;;;;;;;1.13;0.60;;;21.10;83.60;;;;;;5001715;28;20038;-76
2023/07/19 04:12:30;;;;;;;3.15;0.90;;;21.10;83.70;;;;;;5001818;28;20038;-76
2023/07/19 04:14:57;;;;;;;2.90;0.65;;;21.00;83.80;;;;;;5000537;28;20029;-76
2023/07/19 04:17:25;;;;;;;1.98;0.80;;;21.00;83.60;;;;;;5005009;28;20084;-76
2023/07/19 04:19:51;;;;;;;1.25;1.00;;;21.00;83.40;;;;;;5033138;28;20034;-76
2023/07/19 04:22:17;;;;;;;4.18;1.20;;;21.00;83.80;;;;;;5032729;28;20032;-76
2023/07/19 04:24:43;;;;;;;3.33;1.10;;;20.90;84.20;;;;;;5033027;28;20073;-76
2023/07/19 04:27:10;;;;;;;2.95;1.10;;;21.00;83.90;;;;;;5000117;28;20056;-76
2023/07/19 04:29:36;;;;;;;2.88;1.33;;;20.90;83.60;;;;;;4988688;28;20073;-76
2023/07/19 04:32:02;;;;;;;2.78;1.20;;;20.90;83.60;;;;;;5000779;28;20831;-75
2023/07/19 04:34:29;;;;;;;1.90;1.13;;;20.90;84.70;;;;;;5005064;28;20180;-77
2023/07/19 04:36:55;;;;;;;2.33;1.02;;;20.90;83.80;;;;;;5017675;28;20140;-76
2023/07/19 04:39:22;;;;;;;3.22;1.17;;;20.90;84.10;;;;;;5015818;28;20041;-76
2023/07/19 04:41:48;;;;;;;1.50;1.00;;;20.90;83.90;;;;;;5033880;28;20037;-77
2023/07/19 04:44:16;;;;;;;1.42;0.93;;;20.90;84.30;;;;;;5032462;28;20540;-76
2023/07/19 04:46:43;;;;;;;1.30;0.90;;;20.90;84.60;;;;;;5000366;28;20080;-75
2023/07/19 04:49:09;;;;;;;3.33;1.30;;;20.90;84.60;;;;;;5003642;28;20501;-76
2023/07/19 04:51:35;;;;;;;1.45;0.98;;;20.80;84.70;;;;;;4999872;28;20044;-76
2023/07/19 04:54:01;;;;;;;3.83;1.40;;;20.90;84.80;;;;;;5003745;28;20034;-75
2023/07/19 04:56:30;;;;;;;2.13;1.05;;;20.80;84.80;;;;;;5032435;28;20033;-75
2023/07/19 04:58:56;;;;;;;2.58;1.17;;;20.90;85.10;;;;;;5000477;28;20410;-76
2023/07/19 05:01:21;;;;;;;3.53;1.55;;;20.90;85.30;;;;;;5004061;28;20041;-75
2023/07/19 05:03:48;;;;;;;2.28;1.63;;;20.90;85.80;;;;;;5033122;28;20493;-75
2023/07/19 05:06:14;;;;;;;2.20;1.27;;;21.00;85.60;;;;;;5031082;28;20038;-76
2023/07/19 05:08:41;;;;;;;3.40;1.45;;;20.90;85.40;;;;;;5002354;28;20034;-76
2023/07/19 05:11:08;;;;;;;3.53;1.45;;;21.00;85.30;;;;;;5031571;28;20046;-76
2023/07/19 05:13:34;;;;;;;3.00;1.65;;;20.90;85.10;;;;;;5032790;28;20042;-75
2023/07/19 05:16:01;;;;;;;3.10;1.20;;;20.90;85.10;;;;;;4987859;28;20049;-76
2023/07/19 05:18:28;;;;;;;2.05;1.33;;;20.90;85.10;;;;;;5000195;28;20576;-76
2023/07/19 05:20:54;;;;;;;11.80;1.58;;;20.90;85.10;;;;;;5003896;28;20497;-76
2023/07/19 05:23:20;;;;;;;2.22;1.25;;;21.00;84.60;;;;;;5035320;28;20026;-76
2023/07/19 05:25:47;;;;;;;2.67;1.23;;;20.90;85.00;;;;;;5001250;28;20054;-77
2023/07/19 05:28:13;;;;;;;1.42;1.25;;;20.90;84.70;;;;;;4999611;28;20068;-77
2023/07/19 05:30:39;;;;;;;2.72;1.02;;;20.90;84.70;;;;;;5001022;28;20124;-76
2023/07/19 05:33:05;;;;;;;1.33;1.20;;;20.90;85.00;;;;;;5000873;28;20030;-76
2023/07/19 05:35:31;;;;;;;1.55;1.20;;;20.90;84.40;;;;;;5001166;28;20110;-76
2023/07/19 05:37:57;;;;;;;2.47;1.27;;;20.90;84.40;;;;;;4999057;28;20141;-77
2023/07/19 05:40:23;;;;;;;1.52;0.93;;;20.90;84.60;;;;;;5000028;28;20823;-76
2023/07/19 05:42:49;;;;;;;1.75;1.20;;;20.90;84.70;;;;;;4998565;28;20084;-76
2023/07/19 05:45:15;;;;;;;1.30;1.17;;;21.00;84.60;;;;;;4999259;28;20035;-76
2023/07/19 05:47:41;;;;;;;1.92;1.38;;;21.00;84.80;;;;;;5000442;28;20026;-76
2023/07/19 05:50:07;;;;;;;1.70;1.15;;;21.00;84.50;;;;;;4999089;28;20548;-75
2023/07/19 05:52:33;;;;;;;1.55;1.10;;;21.10;84.50;;;;;;4998753;28;20370;-76
2023/07/19 05:54:59;;;;;;;1.98;1.42;;;21.10;84.40;;;;;;5000779;28;20134;-76
2023/07/19 05:57:25;;;;;;;1.13;0.90;;;21.00;84.10;;;;;;4999805;28;20041;-77
2023/07/19 05:59:51;;;;;;;1.73;1.08;;;21.00;83.60;;;;;;5000192;28;20413;-74
2023/07/19 06:02:17;;;;;;;2.47;1.13;;;21.00;84.10;;;;;;5000303;28;20033;-76
2023/07/19 06:04:45;;;;;;;0.98;0.90;;;21.10;84.00;;;;;;4998826;28;20045;-76
2023/07/19 06:07:11;;;;;;;1.67;0.90;;;21.10;83.80;;;;;;4998647;28;20049;-76
2023/07/19 06:09:37;;;;;;;1.85;1.17;;;21.00;83.70;;;;;;4998490;28;20211;-77
2023/07/19 06:12:03;;;;;;;2.13;0.90;;;21.10;83.30;;;;;;5002420;28;21439;-75
2023/07/19 06:14:29;;;;;;;2.95;0.88;;;21.10;83.20;;;;;;4998504;28;20571;-74
2023/07/19 06:16:56;;;;;;;1.17;1.05;;;21.00;83.10;;;;;;4998616;28;20125;-75
2023/07/19 06:19:22;;;;;;;1.60;1.10;;;21.00;83.20;;;;;;4999490;28;20848;-75
2023/07/19 06:21:48;;;;;;;1.92;1.10;;;21.00;82.70;;;;;;5000018;28;20629;-75
2023/07/19 06:24:14;;;;;;;1.77;0.90;;;21.00;83.00;;;;;;4999927;28;20116;-74
2023/07/19 06:26:40;;;;;;;1.42;1.05;;;21.00;83.10;;;;;;5001203;28;20060;-77
2023/07/19 06:29:07;;;;;;;4.32;1.10;;;21.00;83.00;;;;;;5030306;28;20042;-76
2023/07/19 06:31:33;;;;;;;1.70;1.27;;;20.90;82.90;;;;;;4999996;28;20568;-76
2023/07/19 06:33:59;;;;;;;1.27;1.05;;;21.00;82.90;;;;;;4999794;28;20025;-74
2023/07/19 06:36:26;;;;;;;1.98;1.00;;;20.90;82.20;;;;;;5000081;28;20027;-78
2023/07/19 06:38:52;;;;;;;1.75;1.25;;;20.90;82.90;;;;;;4999613;28;20038;-76
2023/07/19 06:41:18;;;;;;;3.80;1.67;;;21.00;82.70;;;;;;4981317;28;20053;-76
2023/07/19 06:43:44;;;;;;;2.45;1.13;;;20.90;82.40;;;;;;4994348;28;20049;-75
2023/07/19 06:46:10;;;;;;;1.85;0.98;;;21.00;82.70;;;;;;4989548;28;20038;-77
2023/07/19 06:48:36;;;;;;;1.70;1.20;;;20.90;81.90;;;;;;4979557;28;20038;-75
2023/07/19 06:51:02;;;;;;;0.93;0.90;;;20.90;81.70;;;;;;4979160;28;20129;-78
2023/07/19 06:53:28;;;;;;;1.25;1.00;;;20.90;81.90;;;;;;4980645;28;20037;-77
2023/07/19 06:55:59;;;;;;;1.35;1.10;;;20.80;81.80;;;;;;4978926;28;20133;-77
2023/07/19 06:58:24;;;;;;;1.35;1.02;;;20.80;82.30;;;;;;4978969;28;20030;-77
2023/07/19 07:00:54;;;;;;;2.17;1.45;;;20.80;82.10;;;;;;4980063;28;20031;-77
2023/07/19 07:03:21;;;;;;;1.98;1.15;;;20.80;82.00;;;;;;4980463;28;20125;-77
2023/07/19 07:05:47;;;;;;;4.88;1.20;;;20.80;82.10;;;;;;5013128;28;20039;-77
2023/07/19 07:08:13;;;;;;;2.22;1.40;;;20.80;82.10;;;;;;4978812;28;20038;-77
2023/07/19 07:10:42;;;;;;;3.58;1.60;;;20.80;82.40;;;;;;4994109;28;20034;-76
2023/07/19 07:13:09;;;;;;;4.88;1.90;;;20.90;82.30;;;;;;4977966;28;20132;-76
2023/07/19 07:15:35;;;;;;;6.63;1.30;;;20.90;82.40;;;;;;4978121;28;20031;-77
2023/07/19 07:18:01;;;;;;;4.47;1.73;;;20.90;82.40;;;;;;4981140;28;20034;-76
2023/07/19 07:20:27;;;;;;;5.38;1.67;;;20.90;82.30;;;;;;4981408;28;20034;-76
2023/07/19 07:22:55;;;;;;;6.38;1.85;;;21.00;82.20;;;;;;4977159;28;20049;-76
2023/07/19 07:25:21;;;;;;;6.60;1.50;;;21.00;82.20;;;;;;4994225;28;20181;-76
2023/07/19 07:27:47;;;;;;;4.97;1.38;;;21.00;81.90;;;;;;4980492;28;20535;-76
2023/07/19 07:30:13;;;;;;;1.77;1.40;;;20.90;81.30;;;;;;4978526;28;20030;-76
2023/07/19 07:32:40;;;;;;;6.00;1.50;;;20.90;81.60;;;;;;4983263;28;20109;-77
2023/07/19 07:35:06;;;;;;;3.88;1.25;;;20.90;81.60;;;;;;4983302;28;20035;-77
2023/07/19 07:37:33;;;;;;;1.60;1.50;;;20.90;81.90;;;;;;4984808;28;20445;-77
2023/07/19 07:39:59;;;;;;;3.85;1.40;;;20.80;81.50;;;;;;4982422;28;20042;-78
2023/07/19 07:42:25;;;;;;;4.35;1.60;;;20.90;81.60;;;;;;4983964;28;20042;-78
2023/07/19 07:44:51;;;;;;;5.18;1.60;;;21.00;81.80;;;;;;4981751;28;20636;-78
2023/07/19 07:47:17;;;;;;;5.13;1.83;;;21.00;81.60;;;;;;4983244;28;20572;-78
2023/07/19 07:49:43;;;;;;;4.47;1.90;;;21.00;81.60;;;;;;5013651;28;20122;-75
2023/07/19 07:52:11;;;;;;;5.60;1.90;;;21.00;81.70;;;;;;4981265;28;20045;-72
2023/07/19 07:54:38;;;;;;;3.75;1.55;;;20.90;81.40;;;;;;4980986;28;20039;-75
2023/07/19 07:57:04;;;;;;;2.55;1.80;;;20.90;81.60;;;;;;4984637;28;20039;-74
2023/07/19 07:59:30;;;;;;;9.82;1.90;;;21.00;82.00;;;;;;5014158;28;20050;-75
2023/07/19 08:01:56;;;;;;;6.63;1.90;;;21.00;81.90;;;;;;4980864;28;20042;-75
2023/07/19 08:04:22;;;;;;;2.42;1.75;;;21.00;81.70;;;;;;4983604;28;20041;-74
2023/07/19 08:06:48;;;;;;;8.05;2.03;;;21.00;81.60;;;;;;4980846;28;20054;-75
2023/07/19 08:09:14;;;;;;;4.28;1.90;;;21.00;81.60;;;;;;4981673;28;20038;-74
2023/07/19 08:11:40;;;;;;;5.15;2.30;;;21.00;82.00;;;;;;4982028;28;20121;-75
2023/07/19 08:14:05;;;;;;;4.80;2.05;;;21.00;82.20;;;;;;4981839;28;20038;-73
2023/07/19 08:16:31;;;;;;;5.20;2.10;;;21.00;82.40;;;;;;4983463;28;20031;-76
2023/07/19 08:18:57;;;;;;;6.00;2.10;;;21.00;82.50;;;;;;4981796;28;20528;-73
2023/07/19 08:21:25;;;;;;;7.18;2.70;;;21.00;82.90;;;;;;4981079;28;20780;-73
2023/07/19 08:23:53;;;;;;;7.50;2.50;;;21.00;82.90;;;;;;4981651;28;20522;-74
2023/07/19 08:26:20;;;;;;;5.28;2.30;;;20.90;82.60;;;;;;5001185;28;20100;-74
2023/07/19 08:28:46;;;;;;;6.57;2.60;;;21.00;83.30;;;;;;4985255;28;20030;-74
2023/07/19 08:31:12;;;;;;;5.03;2.20;;;21.00;83.30;;;;;;4981010;28;20054;-74
2023/07/19 08:33:38;;;;;;;5.35;2.53;;;21.00;83.10;;;;;;4982079;28;20058;-74
2023/07/19 08:36:04;;;;;;;4.35;2.63;;;21.00;82.90;;;;;;4981477;28;22111;-74
2023/07/19 08:38:30;;;;;;;11.20;3.28;;;21.00;83.20;;;;;;4982266;28;20038;-74
2023/07/19 08:41:02;;;;;;;7.05;2.60;;;21.00;82.90;;;;;;4981955;28;20038;-75
2023/07/19 08:43:31;;;;;;;5.97;2.22;;;20.90;82.90;;;;;;4984161;28;20042;-75
2023/07/19 08:45:57;;;;;;;5.28;2.10;;;20.90;83.10;;;;;;4983748;28;20038;-75
2023/07/19 08:48:24;;;;;;;6.32;2.90;;;21.00;83.10;;;;;;4982461;28;20037;-75
2023/07/19 08:51:00;;;;;;;4.07;2.80;;;21.00;83.10;;;;;;4982029;28;20033;-75
2023/07/19 08:53:26;;;;;;;6.60;2.78;;;21.00;82.90;;;;;;5000583;28;20100;-73
2023/07/19 08:55:53;;;;;;;5.75;2.38;;;20.90;82.80;;;;;;4984777;28;20514;-74
2023/07/19 08:58:19;;;;;;;6.25;2.55;;;21.00;83.00;;;;;;4981334;28;20152;-73
2023/07/19 09:00:50;;;;;;;9.13;2.40;;;21.00;83.10;;;;;;4982962;28;20031;-75
2023/07/19 09:03:17;;;;;;;5.55;2.42;;;21.00;83.10;;;;;;4981204;28;20045;-75
2023/07/19 09:05:46;;;;;;;3.80;2.63;;;21.00;83.20;;;;;;4981567;28;20117;-73
2023/07/19 09:08:15;;;;;;;3.88;2.60;;;20.90;82.90;;;;;;4981050;28;20413;-73
2023/07/19 09:10:45;;;;;;;4.63;2.55;;;20.90;82.70;;;;;;4980741;28;20121;-73
2023/07/19 09:13:16;;;;;;;4.10;2.13;;;21.00;83.00;;;;;;4979437;28;20034;-73
2023/07/19 09:15:43;;;;;;;10.50;2.05;;;21.00;83.10;;;;;;4979921;28;20046;-73
2023/07/19 09:18:10;;;;;;;3.88;2.00;;;21.00;82.90;;;;;;4980796;28;20030;-74
2023/07/19 09:20:37;;;;;;;6.35;2.20;;;21.10;82.90;;;;;;4980597;28;20105;-74
2023/07/19 09:23:08;;;;;;;5.68;2.50;;;21.10;83.00;;;;;;4982231;28;20042;-73
2023/07/19 09:25:53;;;;;;;4.65;2.80;;;21.10;82.60;;;;;;4985027;28;20141;-73
2023/07/19 09:28:23;;;;;;;5.38;2.20;;;21.20;82.50;;;;;;4985321;28;20046;-74
2023/07/19 09:30:59;;;;;;;5.30;2.63;;;21.10;82.30;;;;;;4985538;28;20513;-74
2023/07/19 09:33:29;;;;;;;4.10;2.15;;;21.10;82.40;;;;;;4981735;28;20034;-73
2023/07/19 09:35:56;;;;;;;3.78;2.08;;;21.20;82.40;;;;;;4985704;28;20116;-74
2023/07/19 09:38:23;;;;;;;4.32;2.08;;;21.20;82.20;;;;;;4984826;28;20022;-74
2023/07/19 09:40:54;;;;;;;4.07;2.00;;;21.20;82.10;;;;;;4984997;28;20383;-74
2023/07/19 09:43:20;;;;;;;4.72;2.00;;;21.30;82.00;;;;;;5016015;28;20030;-74
2023/07/19 09:45:49;;;;;;;2.70;1.85;;;21.30;81.90;;;;;;4984053;28;20073;-74
2023/07/19 09:48:16;;;;;;;3.70;2.20;;;21.30;81.50;;;;;;5013288;28;20521;-74
2023/07/19 09:50:43;;;;;;;2.97;2.13;;;21.30;81.30;;;;;;4984296;28;20402;-76
2023/07/19 09:53:11;;;;;;;4.10;1.80;;;21.30;81.40;;;;;;4983926;28;20039;-76
2023/07/19 09:55:38;;;;;;;3.83;2.50;;;21.40;81.60;;;;;;4997192;28;20819;-76
2023/07/19 09:58:07;;;;;;;5.22;2.30;;;21.40;81.40;;;;;;4986060;28;20050;-74
2023/07/19 10:00:34;;;;;;;5.45;1.88;;;21.40;81.50;;;;;;4984799;28;20512;-76
2023/07/19 10:03:00;;;;;;;4.55;2.03;;;21.40;81.00;;;;;;4985332;28;20036;-75
2023/07/19 10:05:29;;;;;;;3.60;2.17;;;21.40;80.60;;;;;;4984710;28;20026;-76
2023/07/19 10:08:05;;;;;;;3.83;1.80;;;21.50;80.80;;;;;;4983251;28;20062;-76
2023/07/19 10:10:36;;;;;;;3.20;1.52;;;21.50;80.30;;;;;;4984184;28;20478;-76
2023/07/19 10:13:02;;;;;;;5.15;2.08;;;21.60;80.20;;;;;;4983448;28;20038;-75
2023/07/19 10:15:28;;;;;;;2.63;1.75;;;21.60;80.30;;;;;;4983624;28;20042;-73
2023/07/19 10:17:56;;;;;;;6.13;1.80;;;21.70;79.90;;;;;;4984183;28;20029;-75
2023/07/19 10:20:34;;;;;;;4.43;2.08;;;21.70;79.80;;;;;;4984118;28;20494;-75
2023/07/19 10:23:05;;;;;;;3.47;2.10;;;21.80;79.60;;;;;;4983504;28;20047;-76
2023/07/19 10:25:33;;;;;;;6.03;2.05;;;21.80;79.20;;;;;;5013423;28;20050;-74
2023/07/19 10:28:10;;;;;;;2.35;1.55;;;21.80;79.00;;;;;;4983757;28;20042;-73
2023/07/19 10:30:43;;;;;;;4.38;1.90;;;21.90;79.10;;;;;;4983235;28;20038;-74
2023/07/19 10:33:09;;;;;;;4.70;1.63;;;21.90;78.90;;;;;;4983760;28;20457;-77
2023/07/19 10:35:35;;;;;;;5.65;1.88;;;21.90;78.60;;;;;;4994936;28;20049;-74
2023/07/19 10:38:01;;;;;;;4.03;1.90;;;22.10;79.50;;;;;;4980895;28;20034;-73
2023/07/19 10:40:27;;;;;;;7.43;1.63;;;22.10;80.20;;;;;;4979952;28;20046;-72
2023/07/19 10:42:53;;;;;;;4.90;1.67;;;22.20;80.10;;;;;;4979226;28;20045;-73
2023/07/19 10:45:19;;;;;;;4.63;2.00;;;22.30;79.60;;;;;;4980063;28;20046;-72
2023/07/19 10:47:45;;;;;;;3.75;1.42;;;22.30;78.60;;;;;;4980238;28;20041;-72
2023/07/19 10:50:11;;;;;;;5.13;1.65;;;22.30;79.10;;;;;;4978876;28;20117;-73
2023/07/19 10:52:37;;;;;;;5.38;1.60;;;22.40;79.40;;;;;;4978840;28;20046;-76
2023/07/19 10:55:03;;;;;;;2.22;1.60;;;22.40;79.20;;;;;;4981057;28;20581;-72
2023/07/19 10:57:31;;;;;;;4.85;1.63;;;22.50;79.20;;;;;;4979000;28;20034;-70
2023/07/19 10:59:57;;;;;;;4.35;1.92;;;22.50;79.20;;;;;;4978164;28;20548;-72
2023/07/19 11:02:24;;;;;;;3.10;1.60;;;22.60;79.10;;;;;;4980648;28;20093;-72
2023/07/19 11:04:50;;;;;;;3.72;1.70;;;22.60;79.10;;;;;;4982366;28;20509;-74
2023/07/19 11:07:15;;;;;;;2.88;1.60;;;22.70;78.90;;;;;;4982650;28;20043;-77
2023/07/19 11:09:43;;;;;;;3.90;1.60;;;22.70;79.20;;;;;;4983142;28;20045;-75
2023/07/19 11:12:12;;;;;;;2.50;1.40;;;22.70;78.80;;;;;;4982450;28;20038;-75
2023/07/19 11:14:45;;;;;;;4.40;1.40;;;22.80;78.90;;;;;;4982896;28;20039;-75
2023/07/19 11:17:24;;;;;;;3.38;1.45;;;22.80;78.40;;;;;;4982695;28;20038;-72
2023/07/19 11:19:50;;;;;;;3.13;1.45;;;22.80;78.30;;;;;;4983396;28;20489;-72
2023/07/19 11:22:24;;;;;;;4.55;1.70;;;22.80;77.70;;;;;;4983428;28;20049;-73
2023/07/19 11:24:52;;;;;;;1.27;1.17;;;22.80;77.60;;;;;;4982340;28;20536;-73
2023/07/19 11:27:19;;;;;;;2.92;1.30;;;22.90;77.30;;;;;;5016375;28;20042;-73
2023/07/19 11:29:50;;;;;;;2.70;1.17;;;22.90;76.90;;;;;;4982863;28;20926;-74
2023/07/19 11:32:21;;;;;;;3.15;1.20;;;22.90;77.00;;;;;;4983574;28;20465;-74
2023/07/19 11:34:52;;;;;;;6.10;1.35;;;22.90;76.70;;;;;;4983172;28;20039;-74
2023/07/19 11:37:51;;;;;;;3.38;1.30;;;22.90;76.50;;;;;;4981520;28;20034;-73
2023/07/19 11:40:17;;;;;;;1.80;1.00;;;22.90;76.10;;;;;;4984626;28;21119;-74
2023/07/19 11:42:47;;;;;;;3.00;1.33;;;23.00;75.70;;;;;;4984953;28;20037;-74
2023/07/19 11:45:23;;;;;;;3.60;1.48;;;23.00;75.60;;;;;;4983167;28;20039;-75
2023/07/19 11:47:51;;;;;;;3.55;1.60;;;23.00;75.20;;;;;;4981667;28;20109;-75
2023/07/19 11:50:18;;;;;;;1.63;1.38;;;23.00;75.20;;;;;;5001082;28;20184;-74
2023/07/19 11:52:57;;;;;;;2.53;1.30;;;23.00;74.90;;;;;;4988988;28;20101;-73
2023/07/19 11:55:24;;;;;;;2.35;1.23;;;23.10;74.90;;;;;;4982330;28;20042;-74
2023/07/19 11:57:52;;;;;;;4.68;1.60;;;23.10;75.20;;;;;;4982022;28;20445;-74
2023/07/19 12:00:20;;;;;;;1.55;1.10;;;23.20;74.70;;;;;;4982640;28;20506;-74
2023/07/19 12:02:48;;;;;;;2.83;1.00;;;23.20;74.70;;;;;;4980963;28;20030;-73
2023/07/19 12:05:19;;;;;;;2.38;1.30;;;23.10;74.20;;;;;;4983076;28;20039;-73
2023/07/19 12:07:45;;;;;;;2.90;1.20;;;23.20;73.10;;;;;;4982170;28;20057;-74
2023/07/19 12:10:15;;;;;;;2.90;1.00;;;23.20;73.30;;;;;;4981246;28;20088;-75
2023/07/19 12:12:41;;;;;;;4.13;1.17;;;23.20;73.40;;;;;;4981941;28;20034;-74
2023/07/19 12:15:09;;;;;;;3.33;1.10;;;23.10;73.30;;;;;;4982079;28;20039;-75
2023/07/19 12:17:36;;;;;;;1.80;1.05;;;23.20;72.90;;;;;;4980933;28;20038;-75
2023/07/19 12:20:04;;;;;;;2.45;1.08;;;23.20;73.20;;;;;;4982923;28;20374;-74
2023/07/19 12:22:31;;;;;;;4.75;1.35;;;23.20;73.20;;;;;;4984301;28;20034;-74
2023/07/19 12:25:00;;;;;;;6.10;1.35;;;23.20;72.90;;;;;;4979505;28;20414;-74
2023/07/19 12:27:26;;;;;;;3.45;1.23;;;23.20;73.10;;;;;;4978161;28;20061;-75
2023/07/19 12:29:53;;;;;;;4.50;1.60;;;23.20;73.00;;;;;;4982873;28;20038;-74
2023/07/19 12:32:19;;;;;;;4.47;1.30;;;23.20;73.10;;;;;;5002214;28;20042;-74
2023/07/19 12:34:46;;;;;;;4.72;1.27;;;23.30;72.80;;;;;;4986019;28;20043;-73
2023/07/19 12:37:12;;;;;;;3.78;1.42;;;23.20;72.40;;;;;;4997247;28;20121;-73
2023/07/19 12:39:40;;;;;;;6.05;1.55;;;23.20;72.50;;;;;;4982035;28;20521;-76
2023/07/19 12:42:07;;;;;;;3.75;1.33;;;23.20;72.00;;;;;;4981094;28;20054;-73
2023/07/19 12:44:34;;;;;;;7.47;1.45;;;23.20;72.00;;;;;;4987368;28;20033;-73